Latest Weather Observations for Melville Water

IDW60901

Issued at 9:11 am WST Tuesday 23 October 2018 (issued every 10 minutes, with the page automatically refreshed every 10 minutes)

About weather observations | Map of Perth area stations | Latest observations for Perth area | Other Formats
Station Details ID: 009091 Name: INNER DOLPHIN PYLON Lat: -31.99 Lon: 115.83 Height: 0.0 m
Data from the previous 72 hours. | See also: Recent months at Melville Water
Date/Time
WST
Temp
°C
App
Temp
°C
Dew
Point
°C
Rel
Hum
%
Delta-T
°C
Wind Press
QNH
hPa
Press
MSL
hPa
Rain since
9am
mm
Dir  Spd
km/h
Gust
km/h
Spd
kts
Gust
kts
23/09:00am - - - - - ENE 11 17 6 9 - - -
23/08:30am - - - - - NE 17 22 9 12 - - -
23/08:00am - - - - - ENE 15 19 8 10 - - -
23/07:30am - - - - - ENE 13 17 7 9 - - -
23/07:00am - - - - - E 7 11 4 6 - - -
23/06:30am - - - - - E 11 13 6 7 - - -
23/06:00am - - - - - ESE 11 15 6 8 - - -
23/05:30am - - - - - ESE 9 13 5 7 - - -
23/05:00am - - - - - SE 11 17 6 9 - - -
23/04:30am - - - - - SE 11 13 6 7 - - -
23/04:00am - - - - - SE 9 13 5 7 - - -
23/03:30am - - - - - SE 9 11 5 6 - - -
23/03:00am - - - - - SSE 6 9 3 5 - - -
23/02:30am - - - - - SE 9 11 5 6 - - -
23/02:00am - - - - - SE 9 11 5 6 - - -
23/01:30am - - - - - SE 9 13 5 7 - - -
23/01:00am - - - - - SSE 11 15 6 8 - - -
23/12:30am - - - - - SSE 13 17 7 9 - - -
23/12:00am - - - - - SSE 11 13 6 7 - - -
 
Date/Time
WST
Temp
°C
App
Temp
°C
Dew
Point
°C
Rel
Hum
%
Delta-T
°C
Wind Press
QNH
hPa
Press
MSL
hPa
Rain since
9am
mm
Dir  Spd
km/h
Gust
km/h
Spd
kts
Gust
kts
22/11:30pm - - - - - SSE 11 15 6 8 - - -
22/11:00pm - - - - - SSE 13 15 7 8 - - -
22/10:30pm - - - - - SSE 11 15 6 8 - - -
22/10:00pm - - - - - S 13 17 7 9 - - -
22/09:30pm - - - - - SSE 13 17 7 9 - - -
22/09:00pm - - - - - S 13 15 7 8 - - -
22/08:30pm - - - - - S 15 19 8 10 - - -
22/08:00pm - - - - - S 13 17 7 9 - - -
22/07:30pm - - - - - SSW 20 24 11 13 - - -
22/07:00pm - - - - - SSW 24 30 13 16 - - -
22/06:30pm - - - - - SSW 26 33 14 18 - - -
22/06:00pm - - - - - SSW 24 30 13 16 - - -
22/05:30pm - - - - - SW 26 30 14 16 - - -
22/05:00pm - - - - - SW 26 32 14 17 - - -
22/04:30pm - - - - - SW 24 30 13 16 - - -
22/04:00pm - - - - - SW 22 28 12 15 - - -
22/03:30pm - - - - - SW 20 28 11 15 - - -
22/03:00pm - - - - - SW 24 30 13 16 - - -
22/02:30pm - - - - - SW 20 26 11 14 - - -
22/02:00pm - - - - - SSW 17 24 9 13 - - -
22/01:30pm - - - - - SW 20 30 11 16 - - -
22/01:00pm - - - - - SW 22 28 12 15 - - -
22/12:30pm - - - - - SW 24 35 13 19 - - -
22/12:00pm - - - - - SW 20 30 11 16 - - -
22/11:30am - - - - - SSW 22 37 12 20 - - -
22/11:00am - - - - - WSW 20 28 11 15 - - -
22/10:30am - - - - - SSW 19 30 10 16 - - -
22/10:00am - - - - - S 15 26 8 14 - - -
22/09:30am - - - - - S 20 24 11 13 - - -
22/09:04am - - - - - SW 24 46 13 25 - - -
22/09:00am - - - - - WSW 20 28 11 15 - - -
22/08:30am - - - - - WSW 20 30 11 16 - - -
22/08:00am - - - - - WSW 22 30 12 16 - - -
22/07:30am - - - - - S 13 19 7 10 - - -
22/07:00am - - - - - SSW 22 30 12 16 - - -
22/06:30am - - - - - WSW 13 20 7 11 - - -
22/06:00am - - - - - SW 13 17 7 9 - - -
22/05:30am - - - - - SW 15 19 8 10 - - -
22/05:00am - - - - - SW 28 33 15 18 - - -
22/04:30am - - - - - SSW 22 30 12 16 - - -
22/04:00am - - - - - SSW 20 26 11 14 - - -
22/03:30am - - - - - SSW 19 22 10 12 - - -
22/03:00am - - - - - SW 22 35 12 19 - - -
22/02:30am - - - - - SW 20 30 11 16 - - -
22/02:00am - - - - - SSW 26 32 14 17 - - -
22/01:30am - - - - - SW 22 32 12 17 - - -
22/01:00am - - - - - SSW 24 28 13 15 - - -
22/12:30am - - - - - SW 22 28 12 15 - - -
22/12:00am - - - - - WSW 19 24 10 13 - - -
 
Date/Time
WST
Temp
°C
App
Temp
°C
Dew
Point
°C
Rel
Hum
%
Delta-T
°C
Wind Press
QNH
hPa
Press
MSL
hPa
Rain since
9am
mm
Dir  Spd
km/h
Gust
km/h
Spd
kts
Gust
kts
21/11:30pm - - - - - SW 20 28 11 15 - - -
21/11:00pm - - - - - SW 22 28 12 15 - - -
21/10:30pm - - - - - SW 17 24 9 13 - - -
21/10:00pm - - - - - WSW 20 30 11 16 - - -
21/09:30pm - - - - - SW 19 24 10 13 - - -
21/09:00pm - - - - - SW 26 33 14 18 - - -
21/08:30pm - - - - - SW 22 30 12 16 - - -
21/08:00pm - - - - - SW 28 35 15 19 - - -
21/07:30pm - - - - - SW 28 33 15 18 - - -
21/07:00pm - - - - - SW 26 33 14 18 - - -
21/06:30pm - - - - - SW 30 39 16 21 - - -
21/06:00pm - - - - - SW 28 35 15 19 - - -
21/05:30pm - - - - - SW 30 39 16 21 - - -
21/05:00pm - - - - - SW 33 43 18 23 - - -
21/04:44pm - - - - - SW 35 44 19 24 - - -
21/04:30pm - - - - - WSW 32 41 17 22 - - -
21/04:00pm - - - - - WSW 30 41 16 22 - - -
21/03:30pm - - - - - WSW 30 37 16 20 - - -
21/03:00pm - - - - - WSW 28 35 15 19 - - -
21/02:30pm - - - - - W 20 28 11 15 - - -
21/02:00pm - - - - - W 20 30 11 16 - - -
21/01:30pm - - - - - WSW 30 35 16 19 - - -
21/01:00pm - - - - - WNW 30 41 16 22 - - -
21/12:30pm - - - - - W 32 43 17 23 - - -
21/12:00pm - - - - - W 32 41 17 22 - - -
21/11:45am - - - - - W 28 46 15 25 - - -
21/11:30am - - - - - W 28 41 15 22 - - -
21/11:07am - - - - - W 28 46 15 25 - - -
21/11:00am - - - - - W 32 41 17 22 - - -
21/10:30am - - - - - WNW 22 33 12 18 - - -
21/10:23am - - - - - W 30 48 16 26 - - -
21/10:00am - - - - - W 24 39 13 21 - - -
21/09:30am - - - - - W 28 41 15 22 - - -
21/09:00am - - - - - W 33 43 18 23 - - -
21/08:30am - - - - - W 26 37 14 20 - - -
21/08:00am - - - - - W 22 41 12 22 - - -
21/07:30am - - - - - W 28 39 15 21 - - -
21/07:00am - - - - - W 24 33 13 18 - - -
21/06:30am - - - - - W 24 39 13 21 - - -
21/06:00am - - - - - W 22 32 12 17 - - -
21/05:30am - - - - - WNW 20 30 11 16 - - -
21/05:00am - - - - - NW 11 15 6 8 - - -
21/04:30am - - - - - WNW 17 24 9 13 - - -
21/04:00am - - - - - W 19 26 10 14 - - -
21/03:30am - - - - - WNW 20 32 11 17 - - -
21/03:00am - - - - - W 22 30 12 16 - - -
21/02:30am - - - - - W 22 33 12 18 - - -
21/02:00am - - - - - WNW 15 22 8 12 - - -
21/01:30am - - - - - WNW 19 28 10 15 - - -
21/01:00am - - - - - WNW 20 32 11 17 - - -
21/12:30am - - - - - WNW 13 20 7 11 - - -
21/12:00am - - - - - WNW 13 19 7 10 - - -
 
Date/Time
WST
Temp
°C
App
Temp
°C
Dew
Point
°C
Rel
Hum
%
Delta-T
°C
Wind Press
QNH
hPa
Press
MSL
hPa
Rain since
9am
mm
Dir  Spd
km/h
Gust
km/h
Spd
kts
Gust
kts
20/11:30pm - - - - - NW 11 19 6 10 - - -
20/11:00pm - - - - - WNW 13 19 7 10 - - -
20/10:30pm - - - - - W 22 30 12 16 - - -
20/10:00pm - - - - - NW 9 13 5 7 - - -
20/09:30pm - - - - - W 19 32 10 17 - - -
20/09:00pm - - - - - W 20 30 11 16 - - -
20/08:30pm - - - - - W 19 28 10 15 - - -
20/08:00pm - - - - - W 19 30 10 16 - - -
20/07:30pm - - - - - NW 11 17 6 9 - - -
20/07:00pm - - - - - NW 15 20 8 11 - - -
20/06:37pm - - - - - W 15 33 8 18 - - -
20/06:30pm - - - - - W 7 11 4 6 - - -
20/06:00pm - - - - - WSW 22 30 12 16 - - -
20/05:30pm - - - - - W 20 26 11 14 - - -
20/05:00pm - - - - - W 22 30 12 16 - - -
20/04:30pm - - - - - WNW 24 33 13 18 - - -
20/04:00pm - - - - - WNW 20 33 11 18 - - -
20/03:30pm - - - - - WNW 22 32 12 17 - - -
20/03:00pm - - - - - WNW 15 20 8 11 - - -
20/02:30pm - - - - - WNW 20 35 11 19 - - -
20/02:00pm - - - - - WNW 24 37 13 20 - - -
20/01:30pm - - - - - WNW 22 33 12 18 - - -
20/01:00pm - - - - - WNW 19 30 10 16 - - -
20/12:30pm - - - - - NW 19 26 10 14 - - -
20/12:00pm - - - - - NW 17 26 9 14 - - -
20/11:30am - - - - - NW 17 26 9 14 - - -
20/11:00am - - - - - NW 19 24 10 13 - - -
20/10:30am - - - - - NW 19 26 10 14 - - -
20/10:00am - - - - - NW 17 26 9 14 - - -
20/09:30am - - - - - WNW 17 28 9 15 - - -

Latest Capital City Observations: Canberra | Sydney | Melbourne | Brisbane | Adelaide | Perth | Hobart | Darwin

Other Formats:

Comma delimited format used in spreadsheet applications
http://www.bom.gov.au/fwo/IDW60901/IDW60901.95620.axf

JavaScript Object Notation format (JSON) in row-major order
http://www.bom.gov.au/fwo/IDW60901/IDW60901.95620.json